TRA5651 EHAM-LGKP
Flight info
| Callsign | TRA5651 |
|---|---|
| Flight time | 3h 21m |
| Altitude | 37000 |
| Route | RENDI2V EDUPO Z739 MISGO DCT DOJOH DCT DODEN DCT NEGIX DCT DINKU M867 XERUM DCT BAVAX DCT RADIZ DCT NEMEK DCT GACMO DCT MAVAR DCT BITLA/N0427F330 DCT AKINA UL995 LURUS UN139 MASES DCT |
| Aircraft | A21N/M-SBDE2E3FGHIJ1J5M1P2RWXYZ/LB1D1G1 |
Departure
| Time | 2026-05-08 04:54 |
|---|---|
| Airport | Amsterdam Airport Schiphol (EHAM) |
Arrival
| Time | 2026-05-08 08:16 |
|---|---|
| Airport | Karpathos Airport (LGKP) |
| Time | Latitude | Longitude | Altitude | Speed | Heading |
|---|---|---|---|---|---|
| 2026-05-08 04:48 | 52.30621 | 4.76804 | 4 ft | 0 kts | 304° |
| 2026-05-08 04:50 | 52.30622 | 4.76801 | 4 ft | 1 kts | 304° |
| 2026-05-08 04:50 | 52.30636 | 4.76775 | 4 ft | 5 kts | 319° |
| 2026-05-08 04:50 | 52.30675 | 4.76740 | 4 ft | 8 kts | 354° |
| 2026-05-08 04:51 | 52.30690 | 4.76823 | 4 ft | 12 kts | 121° |
| 2026-05-08 04:51 | 52.30655 | 4.76952 | 4 ft | 13 kts | 94° |
| 2026-05-08 04:51 | 52.30650 | 4.77113 | 4 ft | 15 kts | 93° |
| 2026-05-08 04:51 | 52.30644 | 4.77287 | 4 ft | 16 kts | 93° |
| 2026-05-08 04:52 | 52.30632 | 4.77473 | 4 ft | 17 kts | 123° |
| 2026-05-08 04:52 | 52.30529 | 4.77578 | 4 ft | 18 kts | 153° |
| 2026-05-08 04:52 | 52.30445 | 4.77648 | 5 ft | 10 kts | 159° |
| 2026-05-08 04:52 | 52.30408 | 4.77620 | 4 ft | 0 kts | 238° |
| 2026-05-08 04:53 | 52.30389 | 4.77570 | 3 ft | 27 kts | 238° |
| 2026-05-08 04:54 | 52.30167 | 4.76992 | 2 ft | 92 kts | 238° |
| 2026-05-08 04:54 | 52.29728 | 4.75853 | 3 ft | 144 kts | 238° |
| 2026-05-08 04:54 | 52.29117 | 4.74268 | 67 ft | 177 kts | 237° |
| 2026-05-08 04:54 | 52.28458 | 4.72552 | 607 ft | 180 kts | 236° |
| 2026-05-08 04:55 | 52.27772 | 4.70808 | 1228 ft | 185 kts | 235° |
| 2026-05-08 04:55 | 52.26948 | 4.69124 | 1718 ft | 196 kts | 212° |
| 2026-05-08 04:55 | 52.25632 | 4.68422 | 2228 ft | 207 kts | 186° |
| 2026-05-08 04:55 | 52.24187 | 4.68836 | 2746 ft | 220 kts | 154° |
| 2026-05-08 04:56 | 52.22963 | 4.70354 | 3408 ft | 225 kts | 128° |
| 2026-05-08 04:56 | 52.22116 | 4.72553 | 4027 ft | 237 kts | 118° |
| 2026-05-08 04:56 | 52.21306 | 4.74997 | 4549 ft | 253 kts | 118° |
| 2026-05-08 04:56 | 52.20432 | 4.77559 | 5222 ft | 262 kts | 119° |
| 2026-05-08 04:57 | 52.19532 | 4.80160 | 6013 ft | 265 kts | 120° |
| 2026-05-08 04:57 | 52.18601 | 4.82767 | 6800 ft | 268 kts | 121° |
| 2026-05-08 04:57 | 52.17636 | 4.85392 | 7541 ft | 272 kts | 122° |
| 2026-05-08 04:57 | 52.16657 | 4.88054 | 8293 ft | 276 kts | 122° |
| 2026-05-08 04:58 | 52.15663 | 4.90760 | 9071 ft | 280 kts | 122° |
| 2026-05-08 04:58 | 52.14654 | 4.93500 | 9875 ft | 284 kts | 122° |
| 2026-05-08 04:58 | 52.13624 | 4.96294 | 10471 ft | 295 kts | 122° |
| 2026-05-08 04:58 | 52.12548 | 4.99209 | 10787 ft | 314 kts | 122° |
| 2026-05-08 04:59 | 52.11391 | 5.02346 | 11120 ft | 332 kts | 122° |
| 2026-05-08 04:59 | 52.10187 | 5.05610 | 11722 ft | 339 kts | 122° |
| 2026-05-08 04:59 | 52.08964 | 5.08915 | 12413 ft | 344 kts | 122° |
| 2026-05-08 04:59 | 52.07723 | 5.12266 | 13121 ft | 348 kts | 122° |
| 2026-05-08 05:00 | 52.06469 | 5.15656 | 13819 ft | 352 kts | 122° |
| 2026-05-08 05:00 | 52.05198 | 5.19084 | 14442 ft | 356 kts | 122° |
| 2026-05-08 05:00 | 52.03913 | 5.22543 | 15052 ft | 360 kts | 122° |
| 2026-05-08 05:00 | 52.02611 | 5.26040 | 15657 ft | 364 kts | 122° |
| 2026-05-08 05:01 | 52.01296 | 5.29567 | 16256 ft | 368 kts | 122° |
| 2026-05-08 05:01 | 51.99962 | 5.33141 | 16862 ft | 372 kts | 122° |
| 2026-05-08 05:01 | 51.98615 | 5.36741 | 17446 ft | 376 kts | 122° |
| 2026-05-08 05:01 | 51.97249 | 5.40383 | 18022 ft | 380 kts | 122° |
| 2026-05-08 05:02 | 51.95869 | 5.44054 | 18565 ft | 383 kts | 123° |
| 2026-05-08 05:02 | 51.94476 | 5.47764 | 19063 ft | 387 kts | 123° |
| 2026-05-08 05:02 | 51.93074 | 5.51492 | 19557 ft | 390 kts | 123° |
| 2026-05-08 05:02 | 51.91657 | 5.55257 | 20050 ft | 393 kts | 123° |
| 2026-05-08 05:03 | 51.90229 | 5.59042 | 20542 ft | 395 kts | 123° |
| 2026-05-08 05:03 | 51.88791 | 5.62850 | 21030 ft | 398 kts | 123° |
| 2026-05-08 05:03 | 51.87339 | 5.66684 | 21502 ft | 401 kts | 123° |
| 2026-05-08 05:03 | 51.85876 | 5.70544 | 21968 ft | 404 kts | 123° |
| 2026-05-08 05:04 | 51.84402 | 5.74427 | 22438 ft | 406 kts | 123° |
| 2026-05-08 05:04 | 51.82918 | 5.78333 | 22909 ft | 409 kts | 123° |
| 2026-05-08 05:04 | 51.81423 | 5.82267 | 23367 ft | 412 kts | 123° |
| 2026-05-08 05:04 | 51.79913 | 5.86226 | 23782 ft | 416 kts | 123° |
| 2026-05-08 05:05 | 51.78388 | 5.90215 | 24151 ft | 419 kts | 123° |
| 2026-05-08 05:05 | 51.76852 | 5.94231 | 24527 ft | 421 kts | 123° |
| 2026-05-08 05:05 | 51.75309 | 5.98262 | 24918 ft | 423 kts | 123° |
| 2026-05-08 05:05 | 51.73757 | 6.02314 | 25301 ft | 426 kts | 123° |
| 2026-05-08 05:06 | 51.72193 | 6.06381 | 25681 ft | 428 kts | 123° |
| 2026-05-08 05:06 | 51.70618 | 6.10472 | 26045 ft | 430 kts | 123° |
| 2026-05-08 05:06 | 51.69035 | 6.14576 | 26399 ft | 432 kts | 123° |
| 2026-05-08 05:06 | 51.67445 | 6.18697 | 26753 ft | 434 kts | 123° |
| 2026-05-08 05:07 | 51.65844 | 6.22836 | 27093 ft | 437 kts | 123° |
| 2026-05-08 05:07 | 51.64233 | 6.26994 | 27426 ft | 439 kts | 124° |
| 2026-05-08 05:07 | 51.62612 | 6.31170 | 27745 ft | 440 kts | 124° |
| 2026-05-08 05:07 | 51.60986 | 6.35357 | 28057 ft | 442 kts | 124° |
| 2026-05-08 05:08 | 51.59349 | 6.39562 | 28354 ft | 445 kts | 124° |
| 2026-05-08 05:08 | 51.57702 | 6.43784 | 28656 ft | 447 kts | 124° |
| 2026-05-08 05:08 | 51.56050 | 6.48017 | 28952 ft | 449 kts | 124° |
| 2026-05-08 05:08 | 51.54385 | 6.52277 | 29240 ft | 451 kts | 124° |
| 2026-05-08 05:09 | 51.52713 | 6.56545 | 29533 ft | 453 kts | 124° |
| 2026-05-08 05:09 | 51.51031 | 6.60833 | 29827 ft | 455 kts | 124° |
| 2026-05-08 05:09 | 51.49342 | 6.65128 | 30112 ft | 456 kts | 124° |
| 2026-05-08 05:09 | 51.47641 | 6.69444 | 30357 ft | 458 kts | 124° |
| 2026-05-08 05:10 | 51.45933 | 6.73768 | 30583 ft | 460 kts | 124° |
| 2026-05-08 05:10 | 51.42491 | 6.82478 | 30997 ft | 464 kts | 124° |
| 2026-05-08 05:10 | 51.40700 | 6.86775 | 31205 ft | 464 kts | 129° |
| 2026-05-08 05:11 | 51.38562 | 6.90634 | 31457 ft | 462 kts | 137° |
| 2026-05-08 05:11 | 51.36268 | 6.94220 | 31737 ft | 461 kts | 139° |
| 2026-05-08 05:11 | 51.33956 | 6.97760 | 32047 ft | 460 kts | 139° |
| 2026-05-08 05:11 | 51.31647 | 7.01303 | 32333 ft | 459 kts | 138° |
| 2026-05-08 05:12 | 51.29347 | 7.04851 | 32601 ft | 459 kts | 138° |
| 2026-05-08 05:12 | 51.27052 | 7.08397 | 32874 ft | 459 kts | 138° |
| 2026-05-08 05:12 | 51.24764 | 7.11931 | 33134 ft | 458 kts | 138° |
| 2026-05-08 05:12 | 51.22474 | 7.15466 | 33375 ft | 458 kts | 139° |
| 2026-05-08 05:13 | 51.20182 | 7.18992 | 33559 ft | 459 kts | 139° |
| 2026-05-08 05:13 | 51.17882 | 7.22531 | 33759 ft | 459 kts | 139° |
| 2026-05-08 05:13 | 51.15615 | 7.26011 | 33987 ft | 459 kts | 139° |
| 2026-05-08 05:13 | 51.13287 | 7.29581 | 34201 ft | 459 kts | 139° |
| 2026-05-08 05:14 | 51.11021 | 7.33053 | 34347 ft | 458 kts | 139° |
| 2026-05-08 05:14 | 51.08722 | 7.36568 | 34498 ft | 458 kts | 139° |
| 2026-05-08 05:14 | 51.06420 | 7.40079 | 34660 ft | 458 kts | 139° |
| 2026-05-08 05:14 | 51.04122 | 7.43582 | 34815 ft | 458 kts | 139° |
| 2026-05-08 05:15 | 51.01819 | 7.47086 | 34964 ft | 458 kts | 139° |
| 2026-05-08 05:15 | 50.99519 | 7.50580 | 35116 ft | 458 kts | 139° |
| 2026-05-08 05:15 | 50.97217 | 7.54074 | 35261 ft | 458 kts | 139° |
| 2026-05-08 05:15 | 50.94914 | 7.57565 | 35385 ft | 458 kts | 139° |
| 2026-05-08 05:16 | 50.92607 | 7.61056 | 35503 ft | 459 kts | 139° |
| 2026-05-08 05:16 | 50.90295 | 7.64549 | 35626 ft | 459 kts | 139° |
| 2026-05-08 05:16 | 50.87988 | 7.68027 | 35752 ft | 459 kts | 139° |
| 2026-05-08 05:16 | 50.85676 | 7.71507 | 35870 ft | 459 kts | 139° |
| 2026-05-08 05:17 | 50.83364 | 7.74988 | 35988 ft | 459 kts | 139° |
| 2026-05-08 05:17 | 50.81048 | 7.78456 | 36099 ft | 458 kts | 139° |
| 2026-05-08 05:17 | 50.78727 | 7.81914 | 36218 ft | 458 kts | 139° |
| 2026-05-08 05:17 | 50.76405 | 7.85367 | 36327 ft | 458 kts | 139° |
| 2026-05-08 05:18 | 50.74085 | 7.88813 | 36441 ft | 458 kts | 139° |
| 2026-05-08 05:18 | 50.71762 | 7.92259 | 36554 ft | 458 kts | 139° |
| 2026-05-08 05:18 | 50.69441 | 7.95699 | 36662 ft | 458 kts | 139° |
| 2026-05-08 05:19 | 50.64791 | 8.02589 | 36849 ft | 459 kts | 139° |
| 2026-05-08 05:19 | 50.62465 | 8.06024 | 36959 ft | 458 kts | 139° |
| 2026-05-08 05:19 | 50.60178 | 8.09528 | 37078 ft | 460 kts | 134° |
| 2026-05-08 05:20 | 50.56121 | 8.17346 | 37159 ft | 462 kts | 130° |
| 2026-05-08 05:20 | 50.52125 | 8.25258 | 37148 ft | 462 kts | 130° |
| 2026-05-08 05:21 | 50.48106 | 8.33139 | 37139 ft | 462 kts | 131° |
| 2026-05-08 05:21 | 50.44078 | 8.41008 | 37136 ft | 463 kts | 131° |
| 2026-05-08 05:22 | 50.40042 | 8.48873 | 37139 ft | 463 kts | 131° |
| 2026-05-08 05:22 | 50.35856 | 8.56510 | 37130 ft | 461 kts | 135° |
| 2026-05-08 05:23 | 50.31472 | 8.63852 | 37121 ft | 462 kts | 135° |
| 2026-05-08 05:23 | 50.27096 | 8.71156 | 37120 ft | 462 kts | 135° |
| 2026-05-08 05:24 | 50.22696 | 8.78491 | 37120 ft | 464 kts | 135° |
| 2026-05-08 05:24 | 50.18294 | 8.85806 | 37115 ft | 463 kts | 135° |
| 2026-05-08 05:25 | 50.13882 | 8.93120 | 37113 ft | 461 kts | 135° |
| 2026-05-08 05:25 | 50.09466 | 9.00416 | 37118 ft | 462 kts | 135° |
| 2026-05-08 05:26 | 50.05049 | 9.07693 | 37107 ft | 464 kts | 136° |
| 2026-05-08 05:26 | 50.01339 | 9.13795 | 37117 ft | 462 kts | 136° |
| 2026-05-08 05:27 | 49.96938 | 9.21011 | 37111 ft | 462 kts | 136° |
| 2026-05-08 05:27 | 49.92507 | 9.28247 | 37106 ft | 464 kts | 136° |
| 2026-05-08 05:28 | 49.88077 | 9.35470 | 37102 ft | 463 kts | 136° |
| 2026-05-08 05:28 | 49.83637 | 9.42689 | 37099 ft | 461 kts | 136° |
| 2026-05-08 05:29 | 49.79194 | 9.49890 | 37091 ft | 462 kts | 136° |
| 2026-05-08 05:29 | 49.74739 | 9.57092 | 37096 ft | 464 kts | 136° |
| 2026-05-08 05:30 | 49.70283 | 9.64272 | 37094 ft | 464 kts | 136° |
| 2026-05-08 05:30 | 49.65820 | 9.71443 | 37094 ft | 462 kts | 136° |
| 2026-05-08 05:31 | 49.61349 | 9.78605 | 37088 ft | 462 kts | 136° |
| 2026-05-08 05:31 | 49.56879 | 9.85753 | 37104 ft | 464 kts | 136° |
| 2026-05-08 05:32 | 49.52409 | 9.92877 | 37097 ft | 463 kts | 137° |
| 2026-05-08 05:32 | 49.47915 | 10.00019 | 37108 ft | 463 kts | 137° |
| 2026-05-08 05:33 | 49.43426 | 10.07132 | 37110 ft | 465 kts | 137° |
| 2026-05-08 05:33 | 49.38936 | 10.14231 | 37110 ft | 464 kts | 137° |
| 2026-05-08 05:34 | 49.34435 | 10.21321 | 37113 ft | 463 kts | 137° |
| 2026-05-08 05:34 | 49.29928 | 10.28406 | 37112 ft | 462 kts | 137° |
| 2026-05-08 05:35 | 49.25414 | 10.35479 | 37123 ft | 465 kts | 137° |
| 2026-05-08 05:35 | 49.20346 | 10.41409 | 37136 ft | 458 kts | 152° |
| 2026-05-08 05:36 | 49.14862 | 10.46329 | 37135 ft | 457 kts | 153° |
| 2026-05-08 05:36 | 49.09377 | 10.51271 | 37149 ft | 456 kts | 153° |
| 2026-05-08 05:37 | 49.03904 | 10.56231 | 37128 ft | 458 kts | 153° |
| 2026-05-08 05:37 | 48.98455 | 10.61166 | 37144 ft | 456 kts | 153° |
| 2026-05-08 05:38 | 48.92974 | 10.66111 | 37139 ft | 457 kts | 153° |
| 2026-05-08 05:38 | 48.87538 | 10.71003 | 37139 ft | 458 kts | 153° |
| 2026-05-08 05:39 | 48.82090 | 10.75998 | 37123 ft | 460 kts | 148° |
| 2026-05-08 05:39 | 48.79636 | 10.79154 | 37104 ft | 466 kts | 137° |
| 2026-05-08 05:39 | 48.77440 | 10.82763 | 37119 ft | 464 kts | 135° |
| 2026-05-08 05:40 | 48.73163 | 10.90079 | 37111 ft | 465 kts | 135° |
| 2026-05-08 05:40 | 48.68851 | 10.97339 | 37111 ft | 464 kts | 135° |
| 2026-05-08 05:41 | 48.64507 | 11.04588 | 37124 ft | 464 kts | 135° |
| 2026-05-08 05:41 | 48.60162 | 11.11826 | 37105 ft | 464 kts | 135° |
| 2026-05-08 05:42 | 48.55814 | 11.19045 | 37103 ft | 465 kts | 135° |
| 2026-05-08 05:42 | 48.51463 | 11.26248 | 37075 ft | 465 kts | 135° |
| 2026-05-08 05:43 | 48.47119 | 11.33419 | 37080 ft | 464 kts | 135° |
| 2026-05-08 05:43 | 48.42759 | 11.40593 | 37094 ft | 462 kts | 136° |
| 2026-05-08 05:44 | 48.38395 | 11.47758 | 37101 ft | 464 kts | 136° |
| 2026-05-08 05:44 | 48.34033 | 11.54900 | 37096 ft | 465 kts | 136° |
| 2026-05-08 05:45 | 48.29665 | 11.62036 | 37109 ft | 463 kts | 136° |
| 2026-05-08 05:45 | 48.25229 | 11.69068 | 37104 ft | 463 kts | 140° |
| 2026-05-08 05:46 | 48.20479 | 11.75593 | 37106 ft | 461 kts | 141° |
| 2026-05-08 05:46 | 48.15718 | 11.82088 | 37101 ft | 463 kts | 141° |
| 2026-05-08 05:47 | 48.10972 | 11.88585 | 37097 ft | 464 kts | 141° |
| 2026-05-08 05:47 | 48.06226 | 11.95072 | 37089 ft | 463 kts | 141° |
| 2026-05-08 05:48 | 48.01464 | 12.01560 | 37064 ft | 463 kts | 141° |
| 2026-05-08 05:48 | 47.96732 | 12.07988 | 37080 ft | 461 kts | 141° |
| 2026-05-08 05:49 | 47.91939 | 12.14487 | 37085 ft | 462 kts | 141° |
| 2026-05-08 05:49 | 47.87215 | 12.20878 | 37086 ft | 464 kts | 141° |
| 2026-05-08 05:50 | 47.82453 | 12.27302 | 37079 ft | 463 kts | 141° |
| 2026-05-08 05:50 | 47.77684 | 12.33712 | 37078 ft | 461 kts | 141° |
| 2026-05-08 05:51 | 47.72915 | 12.40106 | 37079 ft | 460 kts | 141° |
| 2026-05-08 05:51 | 47.68153 | 12.46479 | 37084 ft | 461 kts | 141° |
| 2026-05-08 05:52 | 47.63385 | 12.52844 | 37085 ft | 462 kts | 141° |
| 2026-05-08 05:52 | 47.58726 | 12.59375 | 37084 ft | 462 kts | 140° |
| 2026-05-08 05:53 | 47.54083 | 12.65962 | 37074 ft | 462 kts | 140° |
| 2026-05-08 05:53 | 47.49433 | 12.72528 | 37065 ft | 461 kts | 140° |
| 2026-05-08 05:54 | 47.44779 | 12.79079 | 37073 ft | 462 kts | 140° |
| 2026-05-08 05:54 | 47.40129 | 12.85613 | 37069 ft | 463 kts | 140° |
| 2026-05-08 05:55 | 47.35475 | 12.92134 | 37063 ft | 463 kts | 140° |
| 2026-05-08 05:55 | 47.30809 | 12.98653 | 37055 ft | 462 kts | 140° |
| 2026-05-08 05:56 | 47.26138 | 13.05162 | 37066 ft | 461 kts | 141° |
| 2026-05-08 05:56 | 47.21475 | 13.11647 | 37074 ft | 463 kts | 141° |
| 2026-05-08 05:57 | 47.16801 | 13.18131 | 37077 ft | 461 kts | 141° |
| 2026-05-08 05:57 | 47.12130 | 13.24587 | 37088 ft | 461 kts | 141° |
| 2026-05-08 05:58 | 47.07458 | 13.31037 | 37078 ft | 463 kts | 141° |
| 2026-05-08 05:58 | 47.02751 | 13.37518 | 37084 ft | 462 kts | 141° |
| 2026-05-08 05:59 | 46.98043 | 13.43982 | 37091 ft | 465 kts | 141° |
| 2026-05-08 05:59 | 46.93346 | 13.50417 | 37079 ft | 461 kts | 141° |
| 2026-05-08 06:00 | 46.88648 | 13.56828 | 37106 ft | 464 kts | 141° |
| 2026-05-08 06:00 | 46.83972 | 13.63200 | 37090 ft | 463 kts | 141° |
| 2026-05-08 06:01 | 46.79252 | 13.69613 | 37108 ft | 465 kts | 141° |
| 2026-05-08 06:01 | 46.74533 | 13.76015 | 37069 ft | 461 kts | 142° |
| 2026-05-08 06:02 | 46.69829 | 13.82374 | 37107 ft | 463 kts | 142° |
| 2026-05-08 06:02 | 46.65097 | 13.88752 | 37109 ft | 463 kts | 142° |
| 2026-05-08 06:03 | 46.60365 | 13.95122 | 37099 ft | 464 kts | 142° |
| 2026-05-08 06:03 | 46.55629 | 14.01480 | 37107 ft | 464 kts | 142° |
| 2026-05-08 06:04 | 46.50888 | 14.07828 | 37112 ft | 462 kts | 142° |
| 2026-05-08 06:04 | 46.46149 | 14.14156 | 37122 ft | 463 kts | 142° |
| 2026-05-08 06:05 | 46.41416 | 14.20464 | 37102 ft | 464 kts | 142° |
| 2026-05-08 06:05 | 46.36653 | 14.26792 | 37111 ft | 463 kts | 142° |
| 2026-05-08 06:06 | 46.31897 | 14.33098 | 37112 ft | 464 kts | 142° |
| 2026-05-08 06:06 | 46.27135 | 14.39396 | 37113 ft | 466 kts | 142° |
| 2026-05-08 06:07 | 46.22378 | 14.45674 | 37109 ft | 464 kts | 142° |
| 2026-05-08 06:07 | 46.17610 | 14.51947 | 37100 ft | 464 kts | 142° |
| 2026-05-08 06:08 | 46.12828 | 14.58224 | 37107 ft | 463 kts | 143° |
| 2026-05-08 06:08 | 46.08048 | 14.64485 | 37102 ft | 465 kts | 143° |
| 2026-05-08 06:09 | 46.03268 | 14.70729 | 37102 ft | 466 kts | 143° |
| 2026-05-08 06:09 | 45.98485 | 14.76965 | 37095 ft | 465 kts | 143° |
| 2026-05-08 06:10 | 45.93681 | 14.83208 | 37095 ft | 463 kts | 143° |
| 2026-05-08 06:10 | 45.88920 | 14.89380 | 37094 ft | 465 kts | 143° |
| 2026-05-08 06:11 | 45.84122 | 14.95586 | 37097 ft | 466 kts | 143° |
| 2026-05-08 06:11 | 45.79321 | 15.01780 | 37096 ft | 464 kts | 143° |
| 2026-05-08 06:12 | 45.74512 | 15.07969 | 37075 ft | 463 kts | 143° |
| 2026-05-08 06:12 | 45.69700 | 15.14146 | 37092 ft | 466 kts | 143° |
| 2026-05-08 06:13 | 45.64895 | 15.20307 | 37091 ft | 465 kts | 143° |
| 2026-05-08 06:13 | 45.60077 | 15.26466 | 37093 ft | 463 kts | 143° |
| 2026-05-08 06:14 | 45.56136 | 15.31684 | 37096 ft | 468 kts | 140° |
| 2026-05-08 06:14 | 45.51545 | 15.38213 | 37077 ft | 467 kts | 140° |
| 2026-05-08 06:15 | 45.46966 | 15.44725 | 37089 ft | 463 kts | 140° |
| 2026-05-08 06:15 | 45.42382 | 15.51218 | 37093 ft | 464 kts | 140° |
| 2026-05-08 06:16 | 45.37798 | 15.57693 | 37092 ft | 466 kts | 140° |
| 2026-05-08 06:16 | 45.33213 | 15.64152 | 37092 ft | 465 kts | 140° |
| 2026-05-08 06:17 | 45.26313 | 15.73844 | 37079 ft | 465 kts | 140° |
| 2026-05-08 06:17 | 45.21734 | 15.80257 | 37086 ft | 462 kts | 140° |
| 2026-05-08 06:18 | 45.17150 | 15.86666 | 37086 ft | 461 kts | 140° |
| 2026-05-08 06:18 | 45.12565 | 15.93058 | 37087 ft | 463 kts | 140° |
| 2026-05-08 06:19 | 45.07967 | 15.99438 | 37084 ft | 465 kts | 140° |
| 2026-05-08 06:19 | 45.03369 | 16.05825 | 37086 ft | 463 kts | 140° |
| 2026-05-08 06:20 | 44.98772 | 16.12190 | 37079 ft | 459 kts | 140° |
| 2026-05-08 06:20 | 44.94181 | 16.18515 | 37082 ft | 461 kts | 140° |
| 2026-05-08 06:21 | 44.89599 | 16.24824 | 37076 ft | 462 kts | 140° |
| 2026-05-08 06:21 | 44.85002 | 16.31145 | 37080 ft | 460 kts | 140° |
| 2026-05-08 06:22 | 44.80433 | 16.37411 | 37078 ft | 460 kts | 141° |
| 2026-05-08 06:22 | 44.75833 | 16.43707 | 37070 ft | 462 kts | 141° |
| 2026-05-08 06:23 | 44.71239 | 16.49978 | 37058 ft | 462 kts | 141° |
| 2026-05-08 06:23 | 44.66622 | 16.56260 | 37069 ft | 459 kts | 141° |
| 2026-05-08 06:24 | 44.62010 | 16.62523 | 37070 ft | 462 kts | 141° |
| 2026-05-08 06:24 | 44.57401 | 16.68766 | 37072 ft | 462 kts | 141° |
| 2026-05-08 06:25 | 44.52786 | 16.75006 | 37054 ft | 460 kts | 141° |
| 2026-05-08 06:25 | 44.48162 | 16.81244 | 37067 ft | 460 kts | 141° |
| 2026-05-08 06:26 | 44.43554 | 16.87445 | 37073 ft | 461 kts | 141° |
| 2026-05-08 06:26 | 44.38942 | 16.93636 | 37072 ft | 461 kts | 141° |
| 2026-05-08 06:27 | 44.34329 | 16.99818 | 37068 ft | 459 kts | 141° |
| 2026-05-08 06:27 | 44.29706 | 17.05995 | 37064 ft | 459 kts | 141° |
| 2026-05-08 06:28 | 44.25083 | 17.12160 | 37072 ft | 458 kts | 141° |
| 2026-05-08 06:28 | 44.20498 | 17.18258 | 37073 ft | 460 kts | 141° |
| 2026-05-08 06:29 | 44.15885 | 17.24378 | 37074 ft | 459 kts | 141° |
| 2026-05-08 06:29 | 44.11268 | 17.30493 | 37061 ft | 458 kts | 141° |
| 2026-05-08 06:30 | 44.06637 | 17.36615 | 37074 ft | 458 kts | 141° |
| 2026-05-08 06:30 | 44.02023 | 17.42700 | 37075 ft | 456 kts | 141° |
| 2026-05-08 06:31 | 43.97427 | 17.48740 | 37078 ft | 457 kts | 141° |
| 2026-05-08 06:31 | 43.92834 | 17.54763 | 37085 ft | 453 kts | 141° |
| 2026-05-08 06:32 | 43.88240 | 17.60775 | 37071 ft | 457 kts | 142° |
| 2026-05-08 06:32 | 43.83633 | 17.66799 | 37080 ft | 456 kts | 142° |
| 2026-05-08 06:33 | 43.79016 | 17.72816 | 37080 ft | 453 kts | 142° |
| 2026-05-08 06:33 | 43.74410 | 17.78802 | 37082 ft | 455 kts | 142° |
| 2026-05-08 06:34 | 43.69808 | 17.84779 | 37080 ft | 455 kts | 142° |
| 2026-05-08 06:34 | 43.65194 | 17.90757 | 37080 ft | 452 kts | 142° |
| 2026-05-08 06:35 | 43.60581 | 17.96721 | 37090 ft | 455 kts | 142° |
| 2026-05-08 06:35 | 43.55969 | 18.02670 | 37082 ft | 455 kts | 142° |
| 2026-05-08 06:36 | 43.51361 | 18.08599 | 37075 ft | 452 kts | 142° |
| 2026-05-08 06:36 | 43.46753 | 18.14512 | 37077 ft | 452 kts | 142° |
| 2026-05-08 06:37 | 43.42138 | 18.20422 | 37078 ft | 452 kts | 142° |
| 2026-05-08 06:37 | 43.37560 | 18.26275 | 37078 ft | 454 kts | 142° |
| 2026-05-08 06:38 | 43.32942 | 18.32155 | 37088 ft | 454 kts | 142° |
| 2026-05-08 06:38 | 43.28324 | 18.38033 | 37090 ft | 453 kts | 142° |
| 2026-05-08 06:39 | 43.23703 | 18.43896 | 37056 ft | 451 kts | 142° |
| 2026-05-08 06:39 | 43.19070 | 18.49753 | 37070 ft | 451 kts | 142° |
| 2026-05-08 06:40 | 43.14457 | 18.55602 | 37073 ft | 454 kts | 141° |
| 2026-05-08 06:40 | 43.10006 | 18.61723 | 37075 ft | 455 kts | 140° |
| 2026-05-08 06:41 | 43.05573 | 18.67861 | 37063 ft | 451 kts | 140° |
| 2026-05-08 06:41 | 43.01148 | 18.73958 | 37076 ft | 452 kts | 140° |
| 2026-05-08 06:42 | 42.96735 | 18.80044 | 37060 ft | 451 kts | 140° |
| 2026-05-08 06:42 | 42.92310 | 18.86114 | 37077 ft | 451 kts | 140° |
| 2026-05-08 06:43 | 42.87879 | 18.92185 | 37080 ft | 453 kts | 140° |
| 2026-05-08 06:43 | 42.83452 | 18.98246 | 37076 ft | 453 kts | 140° |
| 2026-05-08 06:44 | 42.79024 | 19.04307 | 37074 ft | 451 kts | 140° |
| 2026-05-08 06:44 | 42.74584 | 19.10355 | 37072 ft | 449 kts | 140° |
| 2026-05-08 06:45 | 42.70169 | 19.16359 | 37051 ft | 454 kts | 140° |
| 2026-05-08 06:45 | 42.65705 | 19.22406 | 37048 ft | 452 kts | 140° |
| 2026-05-08 06:46 | 42.61248 | 19.28448 | 37052 ft | 452 kts | 140° |
| 2026-05-08 06:46 | 42.56784 | 19.34458 | 37041 ft | 452 kts | 140° |
| 2026-05-08 06:47 | 42.52303 | 19.40479 | 37043 ft | 454 kts | 140° |
| 2026-05-08 06:47 | 42.47825 | 19.46490 | 37020 ft | 455 kts | 140° |
| 2026-05-08 06:48 | 42.43310 | 19.52542 | 37034 ft | 457 kts | 140° |
| 2026-05-08 06:48 | 42.38818 | 19.58561 | 37045 ft | 454 kts | 140° |
| 2026-05-08 06:49 | 42.34323 | 19.64564 | 37044 ft | 454 kts | 140° |
| 2026-05-08 06:49 | 42.29812 | 19.70578 | 37052 ft | 454 kts | 141° |
| 2026-05-08 06:50 | 42.25306 | 19.76571 | 37051 ft | 455 kts | 141° |
| 2026-05-08 06:50 | 42.20809 | 19.82541 | 37049 ft | 455 kts | 141° |
| 2026-05-08 06:51 | 42.16286 | 19.88519 | 37054 ft | 453 kts | 141° |
| 2026-05-08 06:51 | 42.11771 | 19.94480 | 37055 ft | 454 kts | 141° |
| 2026-05-08 06:52 | 42.07292 | 20.00384 | 37054 ft | 454 kts | 141° |
| 2026-05-08 06:52 | 42.02780 | 20.06325 | 37040 ft | 452 kts | 141° |
| 2026-05-08 06:53 | 41.98281 | 20.12234 | 37048 ft | 454 kts | 141° |
| 2026-05-08 06:53 | 41.93763 | 20.18159 | 37045 ft | 456 kts | 141° |
| 2026-05-08 06:54 | 41.89233 | 20.24084 | 37050 ft | 456 kts | 141° |
| 2026-05-08 06:54 | 41.84696 | 20.30001 | 37049 ft | 455 kts | 141° |
| 2026-05-08 06:55 | 41.80147 | 20.35920 | 37058 ft | 454 kts | 141° |
| 2026-05-08 06:55 | 41.75622 | 20.41796 | 37054 ft | 452 kts | 141° |
| 2026-05-08 06:56 | 41.71107 | 20.47646 | 37049 ft | 452 kts | 141° |
| 2026-05-08 06:56 | 41.66529 | 20.53446 | 37063 ft | 451 kts | 146° |
| 2026-05-08 06:57 | 41.61637 | 20.58648 | 37062 ft | 450 kts | 147° |
| 2026-05-08 06:57 | 41.56735 | 20.63811 | 37073 ft | 450 kts | 147° |
| 2026-05-08 06:58 | 41.51821 | 20.68984 | 37063 ft | 449 kts | 147° |
| 2026-05-08 06:58 | 41.46918 | 20.74142 | 37086 ft | 449 kts | 147° |
| 2026-05-08 06:59 | 41.42013 | 20.79288 | 37096 ft | 448 kts | 147° |
| 2026-05-08 06:59 | 41.37093 | 20.84439 | 37096 ft | 452 kts | 147° |
| 2026-05-08 07:00 | 41.32168 | 20.89585 | 37104 ft | 450 kts | 147° |
| 2026-05-08 07:00 | 41.27272 | 20.94687 | 37090 ft | 450 kts | 148° |
| 2026-05-08 07:01 | 41.22317 | 20.99842 | 37107 ft | 455 kts | 148° |
| 2026-05-08 07:01 | 41.17352 | 21.05012 | 37106 ft | 453 kts | 148° |
| 2026-05-08 07:02 | 41.12385 | 21.10161 | 37101 ft | 452 kts | 148° |
| 2026-05-08 07:02 | 41.07415 | 21.15310 | 37096 ft | 455 kts | 148° |
| 2026-05-08 07:03 | 41.02407 | 21.20479 | 37105 ft | 455 kts | 148° |
| 2026-05-08 07:03 | 40.97398 | 21.25652 | 37111 ft | 459 kts | 148° |
| 2026-05-08 07:04 | 40.92377 | 21.30829 | 37108 ft | 458 kts | 149° |
| 2026-05-08 07:04 | 40.88166 | 21.35158 | 37113 ft | 459 kts | 147° |
| 2026-05-08 07:05 | 40.83570 | 21.41127 | 37116 ft | 464 kts | 140° |
| 2026-05-08 07:05 | 40.79086 | 21.47272 | 37121 ft | 464 kts | 140° |
| 2026-05-08 07:06 | 40.74615 | 21.53335 | 37120 ft | 464 kts | 140° |
| 2026-05-08 07:06 | 40.70114 | 21.59444 | 37116 ft | 464 kts | 140° |
| 2026-05-08 07:07 | 40.65618 | 21.65552 | 37119 ft | 464 kts | 140° |
| 2026-05-08 07:07 | 40.61110 | 21.71637 | 37116 ft | 464 kts | 140° |
| 2026-05-08 07:08 | 40.56584 | 21.77696 | 37136 ft | 464 kts | 141° |
| 2026-05-08 07:08 | 40.52060 | 21.83772 | 37135 ft | 466 kts | 140° |
| 2026-05-08 07:09 | 40.47523 | 21.89862 | 37136 ft | 467 kts | 141° |
| 2026-05-08 07:09 | 40.42975 | 21.95947 | 37152 ft | 466 kts | 141° |
| 2026-05-08 07:10 | 40.38428 | 22.02022 | 37159 ft | 466 kts | 141° |
| 2026-05-08 07:10 | 40.33872 | 22.08078 | 37151 ft | 466 kts | 141° |
| 2026-05-08 07:11 | 40.29321 | 22.14140 | 37123 ft | 467 kts | 141° |
| 2026-05-08 07:11 | 40.24732 | 22.20224 | 37135 ft | 470 kts | 142° |
| 2026-05-08 07:12 | 40.20143 | 22.26297 | 37113 ft | 470 kts | 142° |
| 2026-05-08 07:12 | 40.15535 | 22.32388 | 37117 ft | 470 kts | 142° |
| 2026-05-08 07:13 | 40.10941 | 22.38455 | 37120 ft | 468 kts | 142° |
| 2026-05-08 07:13 | 40.06348 | 22.44490 | 37124 ft | 467 kts | 142° |
| 2026-05-08 07:14 | 40.01753 | 22.50515 | 37124 ft | 471 kts | 143° |
| 2026-05-08 07:14 | 39.97104 | 22.56601 | 37129 ft | 475 kts | 142° |
| 2026-05-08 07:15 | 39.92486 | 22.62647 | 37101 ft | 475 kts | 142° |
| 2026-05-08 07:15 | 39.87797 | 22.68767 | 37123 ft | 478 kts | 143° |
| 2026-05-08 07:16 | 39.83124 | 22.74894 | 37130 ft | 478 kts | 142° |
| 2026-05-08 07:16 | 39.78442 | 22.80989 | 37105 ft | 477 kts | 143° |
| 2026-05-08 07:17 | 39.73708 | 22.87128 | 37126 ft | 483 kts | 143° |
| 2026-05-08 07:17 | 39.68967 | 22.93270 | 37125 ft | 483 kts | 143° |
| 2026-05-08 07:18 | 39.64224 | 22.99399 | 37123 ft | 481 kts | 143° |
| 2026-05-08 07:18 | 39.59453 | 23.05550 | 37119 ft | 484 kts | 143° |
| 2026-05-08 07:19 | 39.54683 | 23.11692 | 37116 ft | 485 kts | 143° |
| 2026-05-08 07:19 | 39.49869 | 23.17874 | 37126 ft | 487 kts | 143° |
| 2026-05-08 07:20 | 39.45057 | 23.24044 | 37126 ft | 487 kts | 143° |
| 2026-05-08 07:20 | 39.40243 | 23.30198 | 37127 ft | 488 kts | 143° |
| 2026-05-08 07:21 | 39.35432 | 23.36346 | 37100 ft | 488 kts | 143° |
| 2026-05-08 07:21 | 39.30582 | 23.42519 | 37121 ft | 488 kts | 143° |
| 2026-05-08 07:22 | 39.25728 | 23.48693 | 37084 ft | 493 kts | 143° |
| 2026-05-08 07:22 | 39.20843 | 23.54888 | 37082 ft | 492 kts | 143° |
| 2026-05-08 07:23 | 39.15961 | 23.61077 | 37081 ft | 491 kts | 143° |
| 2026-05-08 07:23 | 39.11068 | 23.67254 | 37095 ft | 491 kts | 143° |
| 2026-05-08 07:24 | 39.06187 | 23.73404 | 37083 ft | 491 kts | 143° |
| 2026-05-08 07:24 | 39.01273 | 23.79584 | 37109 ft | 497 kts | 142° |
| 2026-05-08 07:25 | 38.96339 | 23.85786 | 37123 ft | 495 kts | 142° |
| 2026-05-08 07:26 | 38.88938 | 23.95051 | 37131 ft | 496 kts | 143° |
| 2026-05-08 07:26 | 38.84004 | 24.01216 | 37130 ft | 495 kts | 143° |
| 2026-05-08 07:27 | 38.79061 | 24.07375 | 37131 ft | 496 kts | 143° |
| 2026-05-08 07:27 | 38.74091 | 24.13559 | 37130 ft | 501 kts | 142° |
| 2026-05-08 07:28 | 38.69090 | 24.19772 | 37132 ft | 500 kts | 142° |
| 2026-05-08 07:28 | 38.64091 | 24.25968 | 37135 ft | 500 kts | 142° |
| 2026-05-08 07:29 | 38.59090 | 24.32151 | 37135 ft | 500 kts | 142° |
| 2026-05-08 07:29 | 38.54091 | 24.38319 | 37139 ft | 500 kts | 142° |
| 2026-05-08 07:30 | 38.49050 | 24.44517 | 37152 ft | 504 kts | 142° |
| 2026-05-08 07:30 | 38.44002 | 24.50725 | 37147 ft | 505 kts | 142° |
| 2026-05-08 07:31 | 38.38952 | 24.56916 | 37154 ft | 504 kts | 142° |
| 2026-05-08 07:31 | 38.33935 | 24.63062 | 37155 ft | 504 kts | 142° |
| 2026-05-08 07:32 | 38.28883 | 24.69242 | 37156 ft | 503 kts | 142° |
| 2026-05-08 07:32 | 38.23820 | 24.75405 | 37156 ft | 503 kts | 142° |
| 2026-05-08 07:33 | 38.18761 | 24.81554 | 37149 ft | 503 kts | 142° |
| 2026-05-08 07:33 | 38.13683 | 24.87719 | 37154 ft | 506 kts | 142° |
| 2026-05-08 07:34 | 38.08615 | 24.93865 | 37157 ft | 504 kts | 142° |
| 2026-05-08 07:34 | 38.03543 | 24.99999 | 37157 ft | 504 kts | 142° |
| 2026-05-08 07:35 | 37.98460 | 25.06129 | 37159 ft | 507 kts | 142° |
| 2026-05-08 07:35 | 37.93357 | 25.12270 | 37158 ft | 506 kts | 142° |
| 2026-05-08 07:36 | 37.88258 | 25.18400 | 37163 ft | 505 kts | 142° |
| 2026-05-08 07:36 | 37.83161 | 25.24510 | 37159 ft | 505 kts | 142° |
| 2026-05-08 07:37 | 37.78062 | 25.30616 | 37158 ft | 504 kts | 142° |
| 2026-05-08 07:37 | 37.72949 | 25.36719 | 37153 ft | 507 kts | 142° |
| 2026-05-08 07:38 | 37.67825 | 25.42834 | 37152 ft | 508 kts | 142° |
| 2026-05-08 07:38 | 37.62694 | 25.48937 | 37150 ft | 507 kts | 142° |
| 2026-05-08 07:39 | 37.57562 | 25.55033 | 37141 ft | 509 kts | 142° |
| 2026-05-08 07:39 | 37.52420 | 25.61124 | 37148 ft | 506 kts | 142° |
| 2026-05-08 07:40 | 37.47281 | 25.67197 | 37156 ft | 509 kts | 142° |
| 2026-05-08 07:40 | 37.42104 | 25.73306 | 37159 ft | 508 kts | 142° |
| 2026-05-08 07:41 | 37.36935 | 25.79397 | 37168 ft | 509 kts | 142° |
| 2026-05-08 07:41 | 37.31768 | 25.85480 | 37173 ft | 509 kts | 142° |
| 2026-05-08 07:42 | 37.26627 | 25.91507 | 37171 ft | 510 kts | 142° |
| 2026-05-08 07:42 | 37.21442 | 25.97583 | 37177 ft | 510 kts | 141° |
| 2026-05-08 07:43 | 37.16212 | 26.03692 | 37180 ft | 510 kts | 142° |
| 2026-05-08 07:43 | 37.11016 | 26.09751 | 37183 ft | 510 kts | 141° |
| 2026-05-08 07:44 | 37.05817 | 26.15803 | 37182 ft | 510 kts | 142° |
| 2026-05-08 07:44 | 37.00612 | 26.21845 | 37176 ft | 510 kts | 142° |
| 2026-05-08 07:44 | 36.98114 | 26.25008 | 37162 ft | 515 kts | 131° |
| 2026-05-08 07:45 | 36.96227 | 26.28758 | 37173 ft | 520 kts | 115° |
| 2026-05-08 07:45 | 36.93664 | 26.37239 | 37194 ft | 520 kts | 110° |
| 2026-05-08 07:46 | 36.90990 | 26.45644 | 37182 ft | 521 kts | 113° |
| 2026-05-08 07:46 | 36.89375 | 26.49685 | 37169 ft | 520 kts | 125° |
| 2026-05-08 07:46 | 36.87070 | 26.53129 | 37179 ft | 515 kts | 142° |
| 2026-05-08 07:46 | 36.84198 | 26.55695 | 37183 ft | 502 kts | 159° |
| 2026-05-08 07:47 | 36.81003 | 26.57209 | 37174 ft | 484 kts | 175° |
| 2026-05-08 07:47 | 36.74388 | 26.58431 | 37190 ft | 485 kts | 176° |
| 2026-05-08 07:48 | 36.67846 | 26.60849 | 37174 ft | 495 kts | 168° |
| 2026-05-08 07:48 | 36.61326 | 26.63759 | 37179 ft | 497 kts | 167° |
| 2026-05-08 07:49 | 36.54809 | 26.66625 | 37183 ft | 496 kts | 168° |
| 2026-05-08 07:49 | 36.48296 | 26.69452 | 37179 ft | 496 kts | 167° |
| 2026-05-08 07:50 | 36.42886 | 26.71806 | 37163 ft | 497 kts | 167° |
| 2026-05-08 07:50 | 36.36342 | 26.74643 | 37176 ft | 495 kts | 167° |
| 2026-05-08 07:51 | 36.29824 | 26.77463 | 37176 ft | 497 kts | 167° |
| 2026-05-08 07:51 | 36.23309 | 26.80277 | 37178 ft | 496 kts | 167° |
| 2026-05-08 07:52 | 36.16786 | 26.83091 | 37171 ft | 499 kts | 167° |
| 2026-05-08 07:52 | 36.10237 | 26.85910 | 37176 ft | 497 kts | 167° |
| 2026-05-08 07:53 | 36.03690 | 26.88743 | 37180 ft | 500 kts | 167° |
| 2026-05-08 07:53 | 35.97129 | 26.91579 | 37182 ft | 500 kts | 167° |
| 2026-05-08 07:54 | 35.90559 | 26.94393 | 37177 ft | 501 kts | 167° |
| 2026-05-08 07:54 | 35.83982 | 26.97170 | 37179 ft | 499 kts | 167° |
| 2026-05-08 07:55 | 35.77426 | 26.99979 | 37180 ft | 498 kts | 167° |
| 2026-05-08 07:55 | 35.70865 | 27.02793 | 37173 ft | 499 kts | 167° |
| 2026-05-08 07:56 | 35.64281 | 27.05602 | 37157 ft | 501 kts | 167° |
| 2026-05-08 07:56 | 35.57714 | 27.08388 | 37153 ft | 499 kts | 167° |
| 2026-05-08 07:57 | 35.51152 | 27.11169 | 37142 ft | 499 kts | 167° |
| 2026-05-08 07:57 | 35.44590 | 27.13948 | 37167 ft | 499 kts | 167° |
| 2026-05-08 07:58 | 35.38072 | 27.16704 | 36915 ft | 489 kts | 167° |
| 2026-05-08 07:58 | 35.34865 | 27.18061 | 36327 ft | 486 kts | 167° |
| 2026-05-08 07:58 | 35.31718 | 27.19385 | 35754 ft | 484 kts | 167° |
| 2026-05-08 07:58 | 35.28543 | 27.20717 | 35146 ft | 481 kts | 167° |
| 2026-05-08 07:59 | 35.25380 | 27.22046 | 34423 ft | 479 kts | 167° |
| 2026-05-08 07:59 | 35.22243 | 27.23366 | 33759 ft | 475 kts | 167° |
| 2026-05-08 07:59 | 35.19133 | 27.24679 | 33132 ft | 469 kts | 167° |
| 2026-05-08 07:59 | 35.16040 | 27.25768 | 32502 ft | 455 kts | 178° |
| 2026-05-08 08:00 | 35.12951 | 27.25983 | 31883 ft | 435 kts | 193° |
| 2026-05-08 08:00 | 35.10067 | 27.25290 | 31278 ft | 413 kts | 208° |
| 2026-05-08 08:00 | 35.07576 | 27.23769 | 30685 ft | 390 kts | 225° |
| 2026-05-08 08:00 | 35.05663 | 27.21580 | 30069 ft | 368 kts | 241° |
| 2026-05-08 08:01 | 35.04463 | 27.18931 | 29369 ft | 349 kts | 258° |
| 2026-05-08 08:01 | 35.04072 | 27.16098 | 28697 ft | 334 kts | 276° |
| 2026-05-08 08:01 | 35.04510 | 27.13378 | 28054 ft | 324 kts | 294° |
| 2026-05-08 08:01 | 35.05706 | 27.11080 | 27317 ft | 324 kts | 312° |
| 2026-05-08 08:02 | 35.07535 | 27.09454 | 26504 ft | 332 kts | 331° |
| 2026-05-08 08:02 | 35.09802 | 27.08706 | 25671 ft | 347 kts | 349° |
| 2026-05-08 08:02 | 35.12256 | 27.08945 | 24765 ft | 364 kts | 8° |
| 2026-05-08 08:02 | 35.14636 | 27.10178 | 23790 ft | 382 kts | 26° |
| 2026-05-08 08:03 | 35.16718 | 27.12299 | 22627 ft | 398 kts | 40° |
| 2026-05-08 08:03 | 35.18559 | 27.14842 | 21713 ft | 399 kts | 44° |
| 2026-05-08 08:03 | 35.20321 | 27.17445 | 20907 ft | 395 kts | 45° |
| 2026-05-08 08:03 | 35.22063 | 27.20027 | 20102 ft | 392 kts | 45° |
| 2026-05-08 08:04 | 35.23353 | 27.21914 | 19540 ft | 389 kts | 45° |
| 2026-05-08 08:05 | 35.24308 | 27.23301 | 19133 ft | 387 kts | 45° |
| 2026-05-08 08:05 | 35.26036 | 27.25795 | 18407 ft | 382 kts | 45° |
| 2026-05-08 08:05 | 35.27753 | 27.28250 | 17609 ft | 378 kts | 45° |
| 2026-05-08 08:06 | 35.29436 | 27.30641 | 16867 ft | 373 kts | 45° |
| 2026-05-08 08:06 | 35.30888 | 27.32693 | 16254 ft | 368 kts | 45° |
| 2026-05-08 08:06 | 35.32556 | 27.35040 | 15562 ft | 363 kts | 45° |
| 2026-05-08 08:07 | 35.34206 | 27.37349 | 14889 ft | 357 kts | 45° |
| 2026-05-08 08:07 | 35.35817 | 27.39591 | 14237 ft | 353 kts | 46° |
| 2026-05-08 08:07 | 35.37136 | 27.42108 | 13526 ft | 354 kts | 65° |
| 2026-05-08 08:07 | 35.37686 | 27.45035 | 12790 ft | 354 kts | 86° |
| 2026-05-08 08:08 | 35.37388 | 27.48004 | 12073 ft | 352 kts | 107° |
| 2026-05-08 08:08 | 35.36288 | 27.50646 | 11386 ft | 348 kts | 128° |
| 2026-05-08 08:08 | 35.34531 | 27.52641 | 10714 ft | 344 kts | 148° |
| 2026-05-08 08:08 | 35.32344 | 27.53752 | 10024 ft | 340 kts | 169° |
| 2026-05-08 08:09 | 35.30016 | 27.53848 | 9304 ft | 334 kts | 191° |
| 2026-05-08 08:09 | 35.27854 | 27.52937 | 8603 ft | 327 kts | 212° |
| 2026-05-08 08:09 | 35.26149 | 27.51175 | 7909 ft | 320 kts | 233° |
| 2026-05-08 08:09 | 35.25084 | 27.48819 | 7219 ft | 315 kts | 250° |
| 2026-05-08 08:10 | 35.24397 | 27.46292 | 6538 ft | 312 kts | 254° |
| 2026-05-08 08:10 | 35.23787 | 27.43754 | 5852 ft | 309 kts | 255° |
| 2026-05-08 08:10 | 35.23212 | 27.41232 | 5375 ft | 307 kts | 255° |
| 2026-05-08 08:10 | 35.22658 | 27.38714 | 5221 ft | 304 kts | 255° |
| 2026-05-08 08:11 | 35.22206 | 27.36277 | 4968 ft | 287 kts | 264° |
| 2026-05-08 08:11 | 35.22328 | 27.33905 | 4734 ft | 275 kts | 284° |
| 2026-05-08 08:11 | 35.23090 | 27.31804 | 4216 ft | 271 kts | 305° |
| 2026-05-08 08:11 | 35.24405 | 27.30169 | 3644 ft | 270 kts | 325° |
| 2026-05-08 08:12 | 35.26060 | 27.29115 | 3132 ft | 266 kts | 338° |
| 2026-05-08 08:12 | 35.27783 | 27.28368 | 2751 ft | 260 kts | 341° |
| 2026-05-08 08:12 | 35.29495 | 27.27748 | 2513 ft | 254 kts | 350° |
| 2026-05-08 08:12 | 35.31237 | 27.27708 | 2296 ft | 249 kts | 8° |
| 2026-05-08 08:13 | 35.32928 | 27.28091 | 2082 ft | 243 kts | 9° |
| 2026-05-08 08:13 | 35.34568 | 27.28169 | 1979 ft | 231 kts | 348° |
| 2026-05-08 08:13 | 35.35877 | 27.27307 | 1868 ft | 210 kts | 306° |
| 2026-05-08 08:13 | 35.36417 | 27.25700 | 1457 ft | 206 kts | 282° |
| 2026-05-08 08:14 | 35.36841 | 27.24051 | 1394 ft | 200 kts | 292° |
| 2026-05-08 08:14 | 35.37462 | 27.22597 | 1496 ft | 181 kts | 303° |
| 2026-05-08 08:14 | 35.38218 | 27.21410 | 1303 ft | 172 kts | 306° |
| 2026-05-08 08:14 | 35.38912 | 27.20278 | 1070 ft | 161 kts | 304° |
| 2026-05-08 08:15 | 35.39557 | 27.19200 | 824 ft | 154 kts | 304° |
| 2026-05-08 08:15 | 35.40144 | 27.18205 | 620 ft | 138 kts | 303° |
| 2026-05-08 08:15 | 35.40649 | 27.17209 | 405 ft | 138 kts | 299° |
| 2026-05-08 08:15 | 35.41186 | 27.16232 | 240 ft | 138 kts | 301° |
| 2026-05-08 08:16 | 35.41726 | 27.15260 | 56 ft | 136 kts | 301° |
| 2026-05-08 08:16 | 35.42184 | 27.14449 | 44 ft | 78 kts | 304° |
| 2026-05-08 08:16 | 35.42363 | 27.14130 | 37 ft | 24 kts | 304° |
| 2026-05-08 08:16 | 35.42463 | 27.14053 | 35 ft | 20 kts | 57° |
| 2026-05-08 08:17 | 35.42537 | 27.14209 | 37 ft | 22 kts | 58° |
| 2026-05-08 08:17 | 35.42620 | 27.14372 | 38 ft | 24 kts | 58° |
| 2026-05-08 08:17 | 35.42685 | 27.14534 | 39 ft | 13 kts | 103° |
| 2026-05-08 08:17 | 35.42623 | 27.14631 | 40 ft | 16 kts | 135° |
| 2026-05-08 08:18 | 35.42540 | 27.14734 | 42 ft | 17 kts | 134° |
| 2026-05-08 08:18 | 35.42492 | 27.14829 | 43 ft | 14 kts | 70° |
| 2026-05-08 08:18 | 35.42577 | 27.14868 | 42 ft | 10 kts | 332° |
| 2026-05-08 08:18 | 35.42623 | 27.14827 | 42 ft | 7 kts | 317° |
| 2026-05-08 08:19 | 35.42629 | 27.14820 | 42 ft | 0 kts | 314° |